Time;durP1;ratioP1;P1;durP2;ratioP2;P2;SDS_P1;SDS_P2;PMS_P1;PMS_P2;Temp;Humidity;BMP_temperature;BMP_pressure;BME280_temperature;BME280_humidity;BME280_pressure;Samples;Min_cycle;Max_cycle;Signal;HPM_P1;HPM_P2
2023/04/15 00:00:46;;;;;;;8.43;6.50;;;8.40;99.90;;;;;;5016673;28;20479;-83
2023/04/15 00:03:13;;;;;;;9.40;6.43;;;8.40;99.90;;;;;;5017150;28;20858;-83
2023/04/15 00:05:40;;;;;;;8.20;6.20;;;8.30;99.90;;;;;;5017037;28;20454;-83
2023/04/15 00:08:07;;;;;;;9.67;6.47;;;8.30;99.90;;;;;;5016171;28;20563;-82
2023/04/15 00:10:34;;;;;;;10.27;6.00;;;8.20;1.00;;;;;;5016100;28;20538;-82
2023/04/15 00:13:03;;;;;;;10.17;6.70;;;8.20;99.90;;;;;;5016069;28;20986;-82
2023/04/15 00:15:30;;;;;;;8.23;6.20;;;8.20;1.00;;;;;;5016113;28;20457;-82
2023/04/15 00:17:58;;;;;;;10.33;6.10;;;8.10;1.00;;;;;;5015941;28;20481;-82
2023/04/15 00:20:25;;;;;;;9.57;6.17;;;8.10;99.90;;;;;;5016552;28;20486;-82
2023/04/15 00:22:52;;;;;;;8.67;6.10;;;8.00;15.80;;;;;;5016717;28;20500;-82
2023/04/15 00:25:19;;;;;;;8.53;6.97;;;8.00;71.50;;;;;;5016289;28;20901;-83
2023/04/15 00:27:46;;;;;;;11.47;7.20;;;7.90;99.90;;;;;;5016823;28;20461;-83
2023/04/15 00:30:13;;;;;;;9.07;6.90;;;7.80;1.00;;;;;;5016437;28;20526;-82
2023/04/15 00:32:41;;;;;;;9.70;7.00;;;7.80;1.00;;;;;;5015932;28;20541;-82
2023/04/15 00:35:09;;;;;;;9.90;6.63;;;7.80;99.90;;;;;;5016364;28;20507;-82
2023/04/15 00:37:36;;;;;;;7.37;5.97;;;7.70;99.90;;;;;;5016289;28;20494;-82
2023/04/15 00:40:05;;;;;;;14.10;6.70;;;7.70;99.90;;;;;;5016515;28;20998;-82
2023/04/15 00:42:32;;;;;;;9.63;7.37;;;7.60;1.00;;;;;;5016736;28;20541;-82
2023/04/15 00:44:58;;;;;;;9.30;6.60;;;7.60;1.00;;;;;;5016210;28;20458;-82
2023/04/15 00:47:27;;;;;;;8.30;6.70;;;7.50;1.00;;;;;;5017716;28;20468;-82
2023/04/15 00:49:53;;;;;;;10.63;6.93;;;7.50;1.00;;;;;;5016217;28;21001;-83
2023/04/15 00:52:21;;;;;;;10.77;6.37;;;7.50;45.10;;;;;;5015776;28;20464;-82
2023/04/15 00:54:50;;;;;;;11.57;7.43;;;7.40;99.90;;;;;;5015824;28;20550;-86
2023/04/15 00:57:16;;;;;;;9.87;6.70;;;7.40;99.90;;;;;;5016305;28;20464;-83
2023/04/15 00:59:43;;;;;;;7.23;6.40;;;7.40;99.90;;;;;;5015180;28;21006;-83
2023/04/15 01:02:10;;;;;;;8.30;6.37;;;7.40;99.90;;;;;;5015342;28;20497;-83
2023/04/15 01:04:37;;;;;;;9.27;6.80;;;7.30;99.90;;;;;;5016168;28;20446;-81
2023/04/15 01:07:04;;;;;;;10.27;6.87;;;7.30;99.90;;;;;;5015725;28;20457;-82
2023/04/15 01:09:33;;;;;;;11.67;6.87;;;7.30;99.90;;;;;;5016562;28;20468;-83
2023/04/15 01:12:01;;;;;;;10.97;7.73;;;7.20;99.90;;;;;;5015919;28;20457;-82
2023/04/15 01:14:28;;;;;;;13.03;7.00;;;7.20;99.90;;;;;;5015676;28;20453;-82
2023/04/15 01:16:55;;;;;;;8.70;6.80;;;7.10;99.90;;;;;;5015662;28;20459;-82
2023/04/15 01:19:22;;;;;;;9.80;6.37;;;7.10;99.90;;;;;;5014691;28;20458;-82
2023/04/15 01:21:49;;;;;;;8.20;6.47;;;7.00;99.90;;;;;;5014167;28;20964;-81
2023/04/15 01:24:18;;;;;;;9.10;7.57;;;7.00;99.90;;;;;;5015187;28;20504;-81
2023/04/15 01:26:48;;;;;;;9.80;7.00;;;6.90;1.00;;;;;;5014644;28;20455;-81
2023/04/15 01:29:15;;;;;;;13.40;6.90;;;7.00;1.00;;;;;;5014728;28;21196;-80
2023/04/15 01:31:50;;;;;;;11.80;6.67;;;6.90;1.00;;;;;;5014281;28;20454;-82
2023/04/15 01:34:17;;;;;;;11.30;7.13;;;6.90;1.00;;;;;;5017991;28;20472;-81
2023/04/15 01:36:44;;;;;;;9.93;7.13;;;6.90;1.00;;;;;;5026319;28;20539;-81
2023/04/15 01:39:10;;;;;;;9.17;7.23;;;6.90;1.00;;;;;;5027941;28;20517;-80
2023/04/15 01:41:38;;;;;;;10.20;7.40;;;6.90;1.00;;;;;;5025727;28;20552;-82
2023/04/15 01:44:06;;;;;;;12.73;7.27;;;6.80;1.00;;;;;;5017218;28;21028;-83
2023/04/15 01:46:34;;;;;;;9.37;7.60;;;6.80;1.00;;;;;;5017126;28;20454;-83
2023/04/15 01:49:01;;;;;;;11.80;8.10;;;6.80;1.00;;;;;;5020399;28;20463;-83
2023/04/15 01:51:27;;;;;;;11.70;8.57;;;6.80;1.00;;;;;;5020397;28;20481;-83
2023/04/15 01:53:55;;;;;;;9.10;7.53;;;6.70;1.00;;;;;;5021142;28;20456;-83
2023/04/15 01:56:24;;;;;;;9.30;7.60;;;6.70;1.00;;;;;;5021633;28;20536;-83
2023/04/15 01:58:51;;;;;;;11.07;6.83;;;6.70;1.00;;;;;;5020979;28;20428;-83
2023/04/15 02:01:19;;;;;;;8.40;7.30;;;6.70;1.00;;;;;;5020140;28;20480;-82
2023/04/15 02:03:46;;;;;;;10.43;7.37;;;6.70;1.00;;;;;;5020677;28;20488;-83
2023/04/15 02:06:13;;;;;;;8.37;7.43;;;6.70;1.00;;;;;;5020967;28;20462;-83
2023/04/15 02:08:40;;;;;;;10.13;7.70;;;6.60;1.00;;;;;;5020488;28;20552;-84
2023/04/15 02:11:07;;;;;;;10.00;7.33;;;6.60;1.00;;;;;;5019062;28;20480;-83
2023/04/15 02:13:33;;;;;;;10.80;8.13;;;6.60;1.00;;;;;;5019119;28;20446;-83
2023/04/15 02:16:00;;;;;;;9.20;7.00;;;6.50;1.00;;;;;;5020295;28;20455;-82
2023/04/15 02:18:28;;;;;;;12.93;8.50;;;6.50;1.00;;;;;;5019947;28;20471;-82
2023/04/15 02:20:57;;;;;;;9.43;7.17;;;6.50;1.00;;;;;;5019003;28;20488;-82
2023/04/15 02:23:24;;;;;;;9.73;7.80;;;6.40;1.00;;;;;;5019611;28;20496;-81
2023/04/15 02:25:51;;;;;;;9.77;6.80;;;6.40;1.00;;;;;;5020015;28;20452;-82
2023/04/15 02:28:17;;;;;;;10.73;8.40;;;6.30;1.00;;;;;;5019865;28;20456;-83
2023/04/15 02:30:49;;;;;;;10.90;8.10;;;6.30;1.00;;;;;;5018703;28;20451;-83
2023/04/15 02:33:16;;;;;;;10.80;8.50;;;6.20;1.00;;;;;;5019734;28;20465;-84
2023/04/15 02:35:44;;;;;;;13.90;8.50;;;6.20;1.00;;;;;;5019205;28;20453;-82
2023/04/15 02:38:11;;;;;;;12.43;7.93;;;6.20;1.00;;;;;;5020019;28;20460;-82
2023/04/15 02:40:38;;;;;;;11.17;7.70;;;6.20;1.00;;;;;;5018613;28;20471;-82
2023/04/15 02:43:05;;;;;;;12.70;9.00;;;6.20;1.00;;;;;;5019333;28;20572;-83
2023/04/15 02:45:32;;;;;;;19.97;9.80;;;6.20;1.00;;;;;;5018887;28;21147;-82
2023/04/15 02:48:02;;;;;;;9.47;7.70;;;6.20;1.00;;;;;;5018931;28;20457;-83
2023/04/15 02:50:30;;;;;;;12.07;8.87;;;6.20;1.00;;;;;;5019023;28;20862;-80
2023/04/15 02:53:00;;;;;;;14.33;9.40;;;6.20;1.00;;;;;;5018611;28;20903;-84
2023/04/15 02:55:26;;;;;;;12.13;8.70;;;6.10;1.00;;;;;;5019596;28;20469;-82
2023/04/15 02:57:53;;;;;;;12.60;8.40;;;6.10;1.00;;;;;;5019021;28;20473;-81
2023/04/15 03:00:20;;;;;;;10.87;8.30;;;6.20;1.00;;;;;;5018211;28;20478;-82
2023/04/15 03:02:50;;;;;;;12.60;8.47;;;6.20;1.00;;;;;;5017218;28;20467;-82
2023/04/15 03:05:17;;;;;;;12.97;9.03;;;6.20;1.00;;;;;;5017818;28;20484;-80
2023/04/15 03:07:44;;;;;;;11.40;8.77;;;6.10;1.00;;;;;;5018973;28;20453;-82
2023/04/15 03:10:12;;;;;;;11.60;8.80;;;6.10;1.00;;;;;;5019452;28;20865;-83
2023/04/15 03:12:39;;;;;;;10.90;8.90;;;6.10;4.60;;;;;;5018006;28;20805;-83
2023/04/15 03:15:08;;;;;;;11.40;8.77;;;6.10;1.00;;;;;;5019467;28;20620;-84
2023/04/15 03:17:35;;;;;;;11.60;8.83;;;6.10;1.00;;;;;;5018688;28;20472;-83
2023/04/15 03:20:02;;;;;;;12.20;8.07;;;6.00;1.00;;;;;;5018688;28;20484;-83
2023/04/15 03:22:29;;;;;;;10.27;8.13;;;6.00;1.00;;;;;;5017756;28;20454;-83
2023/04/15 03:24:56;;;;;;;14.00;9.23;;;6.00;6.60;;;;;;5018975;28;20462;-83
2023/04/15 03:27:24;;;;;;;11.00;8.80;;;6.00;6.40;;;;;;5019031;28;21369;-82
2023/04/15 03:29:51;;;;;;;9.33;8.37;;;6.00;10.80;;;;;;5018708;28;20491;-83
2023/04/15 03:32:18;;;;;;;10.57;7.60;;;5.90;14.40;;;;;;5017693;28;20449;-83
2023/04/15 03:34:45;;;;;;;9.60;8.27;;;5.90;11.20;;;;;;5018245;28;20458;-83
2023/04/15 03:37:11;;;;;;;10.80;8.20;;;5.90;28.80;;;;;;5018022;28;20992;-81
2023/04/15 03:39:38;;;;;;;10.60;7.90;;;5.90;31.90;;;;;;5017197;28;20561;-82
2023/04/15 03:42:05;;;;;;;19.17;8.27;;;5.90;41.40;;;;;;5016790;28;20452;-82
2023/04/15 03:44:33;;;;;;;8.70;7.57;;;5.90;48.50;;;;;;5018024;28;21011;-81
2023/04/15 03:47:00;;;;;;;10.60;7.33;;;5.90;57.10;;;;;;5018501;28;20492;-81
2023/04/15 03:49:27;;;;;;;9.63;8.37;;;6.00;57.30;;;;;;5017580;28;20953;-82
2023/04/15 03:51:54;;;;;;;11.40;8.37;;;5.90;42.90;;;;;;5014084;28;20458;-81
2023/04/15 03:54:21;;;;;;;10.23;8.47;;;5.90;39.90;;;;;;5026251;28;20808;-83
2023/04/15 03:56:47;;;;;;;13.10;8.33;;;5.90;32.60;;;;;;5037519;28;20952;-80
2023/04/15 03:59:14;;;;;;;10.47;8.43;;;5.80;27.30;;;;;;5020387;28;20839;-83
2023/04/15 04:01:42;;;;;;;10.07;6.93;;;5.80;36.90;;;;;;5021358;28;20466;-83
2023/04/15 04:04:09;;;;;;;10.37;9.03;;;5.80;46.90;;;;;;5026973;28;20494;-83
2023/04/15 04:06:36;;;;;;;10.50;8.00;;;5.80;33.10;;;;;;5037740;28;20972;-82
2023/04/15 04:09:03;;;;;;;11.50;7.97;;;5.80;51.70;;;;;;5019508;28;20453;-82
2023/04/15 04:11:30;;;;;;;8.67;7.37;;;5.70;50.80;;;;;;5016515;28;20473;-82
2023/04/15 04:13:57;;;;;;;10.00;7.00;;;5.70;51.00;;;;;;5019870;28;20472;-82
2023/04/15 04:16:24;;;;;;;11.47;6.97;;;5.70;64.80;;;;;;5028121;28;20535;-80
2023/04/15 04:18:52;;;;;;;9.27;7.60;;;5.60;54.30;;;;;;5027357;28;20476;-83
2023/04/15 04:21:19;;;;;;;11.77;8.47;;;5.60;67.20;;;;;;5017016;28;20921;-82
2023/04/15 04:23:46;;;;;;;10.20;7.80;;;5.60;68.10;;;;;;5016934;28;20500;-83
2023/04/15 04:26:13;;;;;;;8.87;7.63;;;5.50;66.10;;;;;;5017127;28;20553;-82
2023/04/15 04:28:40;;;;;;;11.83;7.67;;;5.50;77.20;;;;;;5017120;28;20464;-82
2023/04/15 04:31:07;;;;;;;9.60;6.73;;;5.40;81.50;;;;;;5015616;28;20479;-82
2023/04/15 04:33:34;;;;;;;11.00;8.50;;;5.40;96.10;;;;;;5013851;28;20464;-82
2023/04/15 04:36:02;;;;;;;12.33;8.57;;;5.40;99.90;;;;;;5016637;28;20460;-82
2023/04/15 04:38:29;;;;;;;9.60;7.87;;;5.40;97.60;;;;;;5015715;28;20485;-81
2023/04/15 04:40:55;;;;;;;9.70;8.07;;;5.30;99.90;;;;;;5015566;28;20513;-82
2023/04/15 04:43:22;;;;;;;8.70;7.80;;;5.30;99.90;;;;;;5013442;28;20431;-82
2023/04/15 04:45:49;;;;;;;10.97;8.33;;;5.30;99.90;;;;;;5016434;28;20464;-82
2023/04/15 04:48:16;;;;;;;15.23;9.60;;;5.20;99.90;;;;;;5016586;28;20453;-83
2023/04/15 04:50:44;;;;;;;12.90;8.03;;;5.20;99.90;;;;;;4996395;28;20444;-82
2023/04/15 04:53:12;;;;;;;8.97;7.50;;;5.30;99.90;;;;;;4996449;28;20462;-82
2023/04/15 04:55:39;;;;;;;11.70;8.00;;;5.20;99.90;;;;;;5015389;28;20514;-81
2023/04/15 04:58:06;;;;;;;8.47;7.50;;;5.20;99.90;;;;;;5016060;28;20504;-81
2023/04/15 05:00:33;;;;;;;10.37;7.43;;;5.20;99.90;;;;;;5014941;28;20480;-81
2023/04/15 05:02:59;;;;;;;10.70;8.27;;;5.20;99.90;;;;;;5015928;28;20455;-82
2023/04/15 05:05:26;;;;;;;12.13;9.27;;;5.10;99.90;;;;;;5015311;28;20493;-83
2023/04/15 05:07:53;;;;;;;13.50;8.57;;;5.20;99.90;;;;;;5016076;28;20458;-83
2023/04/15 05:10:21;;;;;;;13.97;9.00;;;5.20;99.90;;;;;;5015435;28;20539;-82
2023/04/15 05:12:49;;;;;;;10.40;9.00;;;5.20;99.90;;;;;;5013957;28;20492;-83
2023/04/15 05:15:16;;;;;;;12.93;8.93;;;5.20;99.90;;;;;;5015619;28;20453;-83
2023/04/15 05:17:43;;;;;;;11.00;9.00;;;5.20;99.90;;;;;;5026401;28;20450;-83
2023/04/15 05:20:11;;;;;;;13.80;9.10;;;5.30;99.90;;;;;;5016679;28;20492;-82
2023/04/15 05:22:38;;;;;;;12.37;8.53;;;5.30;99.90;;;;;;5014195;28;20452;-82
2023/04/15 05:25:05;;;;;;;12.90;9.53;;;5.30;99.90;;;;;;5014897;28;20480;-82
2023/04/15 05:27:33;;;;;;;12.30;9.40;;;5.50;99.90;;;;;;5015108;28;20442;-82
2023/04/15 05:30:00;;;;;;;12.80;8.13;;;5.50;99.90;;;;;;5015214;28;20454;-82
2023/04/15 05:32:27;;;;;;;11.27;8.80;;;5.50;99.90;;;;;;5014027;28;20991;-82
2023/04/15 05:34:54;;;;;;;13.07;10.67;;;5.60;99.90;;;;;;5014715;28;20448;-81
2023/04/15 05:37:21;;;;;;;11.37;8.50;;;5.70;99.90;;;;;;5015615;28;20477;-80
2023/04/15 05:39:48;;;;;;;13.50;9.33;;;5.80;99.90;;;;;;5015217;28;20562;-80
2023/04/15 05:42:15;;;;;;;15.83;10.40;;;5.80;99.90;;;;;;5012994;28;20449;-80
2023/04/15 05:44:43;;;;;;;14.10;9.87;;;5.90;99.90;;;;;;5015678;28;20588;-82
2023/04/15 05:47:10;;;;;;;11.40;9.57;;;6.00;99.90;;;;;;5013883;28;20460;-81
2023/04/15 05:49:37;;;;;;;13.50;9.13;;;6.00;99.90;;;;;;5013558;28;20475;-82
2023/04/15 05:52:04;;;;;;;11.30;9.33;;;6.10;99.90;;;;;;5013170;28;21022;-81
2023/04/15 05:54:31;;;;;;;14.20;11.10;;;6.20;99.90;;;;;;5014104;28;20486;-83
2023/04/15 05:56:58;;;;;;;12.00;10.37;;;6.30;99.90;;;;;;5013943;28;20453;-82
2023/04/15 05:59:26;;;;;;;14.10;10.20;;;6.30;99.90;;;;;;5013521;28;20978;-82
2023/04/15 06:01:54;;;;;;;13.97;10.10;;;6.40;99.90;;;;;;5012823;28;20456;-82
2023/04/15 06:04:21;;;;;;;15.37;11.20;;;6.50;99.90;;;;;;5012994;28;20489;-83
2023/04/15 06:06:48;;;;;;;21.40;10.60;;;6.50;99.90;;;;;;5011406;28;20467;-82
2023/04/15 06:09:15;;;;;;;17.43;9.90;;;6.50;99.90;;;;;;5013815;28;20449;-83
2023/04/15 06:11:42;;;;;;;15.60;10.87;;;6.60;99.90;;;;;;5011368;28;20455;-83
2023/04/15 06:14:09;;;;;;;15.67;10.40;;;6.70;99.90;;;;;;5014284;28;20616;-82
2023/04/15 06:16:36;;;;;;;14.73;9.90;;;6.70;99.90;;;;;;5014262;28;20491;-81
2023/04/15 06:19:06;;;;;;;13.53;9.50;;;6.80;99.90;;;;;;5014392;28;20464;-83
2023/04/15 06:21:33;;;;;;;14.07;9.97;;;7.00;99.90;;;;;;5010838;28;20485;-84
2023/04/15 06:24:01;;;;;;;12.03;9.10;;;7.20;99.90;;;;;;5012500;28;20432;-83
2023/04/15 06:26:28;;;;;;;15.03;10.87;;;7.40;99.90;;;;;;5010862;28;20562;-83
2023/04/15 06:28:55;;;;;;;12.90;10.00;;;7.60;92.50;;;;;;5012889;28;20444;-83
2023/04/15 06:31:22;;;;;;;13.30;9.47;;;7.70;73.80;;;;;;5011360;28;20477;-83
2023/04/15 06:33:48;;;;;;;12.43;10.60;;;8.00;47.30;;;;;;5012144;28;20480;-83
2023/04/15 06:36:17;;;;;;;12.70;10.60;;;8.10;27.40;;;;;;5016779;28;20464;-83
2023/04/15 06:38:43;;;;;;;14.40;10.73;;;8.20;32.50;;;;;;5016861;28;20465;-83
2023/04/15 06:41:10;;;;;;;16.53;11.30;;;8.40;18.40;;;;;;5015535;28;20482;-84
2023/04/15 06:43:37;;;;;;;13.23;11.70;;;8.50;1.00;;;;;;5016937;28;20519;-83
2023/04/15 06:46:04;;;;;;;13.73;10.10;;;8.50;1.00;;;;;;5017443;28;20581;-83
2023/04/15 06:48:31;;;;;;;14.17;11.30;;;8.50;1.00;;;;;;5017125;28;20456;-84
2023/04/15 06:50:58;;;;;;;10.80;9.37;;;8.60;1.00;;;;;;5011704;28;20849;-84
2023/04/15 06:53:26;;;;;;;13.90;10.60;;;8.50;1.00;;;;;;5017438;28;20544;-82
2023/04/15 06:55:53;;;;;;;14.73;9.33;;;8.50;1.00;;;;;;5017589;28;20464;-83
2023/04/15 06:58:20;;;;;;;13.47;9.60;;;8.60;1.00;;;;;;5017418;28;20999;-83
2023/04/15 07:00:47;;;;;;;14.10;10.87;;;8.60;1.00;;;;;;5016227;28;20463;-82
2023/04/15 07:03:15;;;;;;;13.90;10.33;;;8.60;1.00;;;;;;5017530;28;20491;-82
2023/04/15 07:05:42;;;;;;;12.17;9.90;;;8.70;1.00;;;;;;5017503;28;20528;-83
2023/04/15 07:08:09;;;;;;;12.00;9.90;;;8.80;1.00;;;;;;5017661;28;20466;-82
2023/04/15 07:10:37;;;;;;;13.77;10.90;;;8.90;1.00;;;;;;5017165;28;20820;-82
2023/04/15 07:13:04;;;;;;;14.03;9.77;;;9.20;1.00;;;;;;5017178;28;20487;-83
2023/04/15 07:15:31;;;;;;;11.97;8.53;;;9.40;1.00;;;;;;5013749;28;20565;-84
2023/04/15 07:17:58;;;;;;;14.00;9.13;;;9.60;1.00;;;;;;5018768;28;20533;-83
2023/04/15 07:20:25;;;;;;;11.77;8.60;;;9.70;1.00;;;;;;5021057;28;20575;-84
2023/04/15 07:22:52;;;;;;;9.23;8.13;;;10.00;1.00;;;;;;5017980;28;20456;-83
2023/04/15 07:25:19;;;;;;;11.70;8.53;;;10.10;1.00;;;;;;5021648;28;20499;-84
2023/04/15 07:27:47;;;;;;;10.30;8.63;;;10.30;1.00;;;;;;5020413;28;20813;-83
2023/04/15 07:30:14;;;;;;;9.77;8.53;;;10.40;1.00;;;;;;5017733;28;20564;-85
2023/04/15 07:32:42;;;;;;;12.53;9.60;;;10.50;99.90;;;;;;5017180;28;20456;-83
2023/04/15 07:35:10;;;;;;;14.07;9.73;;;10.70;99.90;;;;;;5017327;28;20540;-84
2023/04/15 07:37:37;;;;;;;12.67;9.47;;;10.70;99.90;;;;;;5018990;28;20463;-84
2023/04/15 07:40:06;;;;;;;11.77;9.27;;;10.70;99.90;;;;;;5017002;28;20477;-84
2023/04/15 07:42:33;;;;;;;12.10;8.20;;;10.30;99.90;;;;;;5015942;28;20974;-84
2023/04/15 07:45:01;;;;;;;10.60;8.40;;;10.50;99.90;;;;;;5015149;28;20514;-84
2023/04/15 07:47:28;;;;;;;11.50;8.73;;;10.70;99.90;;;;;;5016585;28;20483;-83
2023/04/15 07:49:55;;;;;;;10.57;9.47;;;10.70;1.00;;;;;;4998528;28;20567;-85
2023/04/15 07:52:21;;;;;;;11.33;9.20;;;10.70;1.00;;;;;;5011853;28;20572;-85
2023/04/15 07:54:48;;;;;;;12.57;8.30;;;10.90;24.50;;;;;;5017852;28;20548;-83
2023/04/15 07:57:17;;;;;;;12.40;8.80;;;11.10;1.00;;;;;;5018663;28;20465;-84
2023/04/15 07:59:44;;;;;;;11.00;8.90;;;11.00;88.50;;;;;;5017015;28;20857;-84
2023/04/15 08:02:13;;;;;;;9.30;7.33;;;11.00;99.90;;;;;;5015498;28;20523;-83
2023/04/15 08:04:39;;;;;;;9.33;7.97;;;10.90;99.90;;;;;;5017059;28;20580;-83
2023/04/15 08:07:06;;;;;;;10.37;7.50;;;11.00;99.90;;;;;;5017536;28;20460;-84
2023/04/15 08:09:33;;;;;;;9.70;7.40;;;11.10;1.00;;;;;;5018795;28;20510;-83
2023/04/15 08:12:00;;;;;;;8.03;7.00;;;11.40;1.00;;;;;;5017246;28;20496;-85
2023/04/15 08:14:27;;;;;;;8.43;6.90;;;11.50;1.00;;;;;;5016611;28;20457;-83
2023/04/15 08:16:54;;;;;;;10.50;7.37;;;11.40;1.00;;;;;;5016628;28;20585;-83
2023/04/15 08:19:23;;;;;;;9.73;7.63;;;11.50;1.00;;;;;;5017257;28;20548;-86
2023/04/15 08:21:50;;;;;;;8.77;7.60;;;12.00;1.00;;;;;;5015066;28;20450;-84
2023/04/15 08:24:16;;;;;;;8.70;6.73;;;12.10;99.90;;;;;;5016095;28;20455;-81
2023/04/15 08:26:43;;;;;;;9.03;6.40;;;12.50;80.50;;;;;;5002179;28;20487;-85
2023/04/15 08:29:10;;;;;;;7.50;6.00;;;12.60;99.90;;;;;;5015298;28;20462;-84
2023/04/15 08:31:37;;;;;;;6.90;5.17;;;12.90;99.90;;;;;;5014660;28;20476;-84
2023/04/15 08:34:04;;;;;;;7.77;5.90;;;13.00;99.90;;;;;;5014937;28;20464;-84
2023/04/15 08:36:32;;;;;;;7.00;5.83;;;12.90;99.90;;;;;;5013750;28;20458;-84
2023/04/15 08:39:00;;;;;;;8.70;6.20;;;12.50;99.90;;;;;;5014979;28;21177;-83
2023/04/15 08:41:27;;;;;;;9.63;5.83;;;12.00;99.90;;;;;;5013200;28;20565;-84
2023/04/15 08:43:57;;;;;;;7.53;5.40;;;12.10;1.00;;;;;;5022396;28;20888;-85
2023/04/15 08:46:24;;;;;;;7.60;5.80;;;12.40;99.90;;;;;;5023248;28;21015;-84
2023/04/15 08:48:52;;;;;;;10.57;7.10;;;12.40;99.90;;;;;;5029210;28;20465;-84
2023/04/15 08:51:19;;;;;;;7.03;5.60;;;12.50;99.90;;;;;;5033297;28;20917;-85
2023/04/15 08:53:47;;;;;;;8.70;6.90;;;12.80;1.00;;;;;;5020517;28;20486;-84
2023/04/15 08:56:15;;;;;;;8.60;5.93;;;13.10;99.90;;;;;;5022550;28;20462;-84
2023/04/15 08:58:43;;;;;;;7.90;4.27;;;13.60;99.90;;;;;;5013845;28;20839;-83
2023/04/15 09:01:11;;;;;;;6.47;4.60;;;13.70;1.00;;;;;;5012370;28;20882;-83
2023/04/15 09:03:39;;;;;;;5.50;3.90;;;13.70;9.50;;;;;;5018218;28;20465;-85
2023/04/15 09:06:06;;;;;;;5.80;4.40;;;13.50;1.00;;;;;;5020530;28;20527;-83
2023/04/15 09:08:34;;;;;;;14.53;4.70;;;13.50;1.00;;;;;;5022032;28;20457;-84
2023/04/15 09:11:02;;;;;;;5.73;4.57;;;13.70;1.00;;;;;;5030969;28;20474;-83
2023/04/15 09:13:30;;;;;;;6.50;4.40;;;12.90;1.00;;;;;;5030938;28;20487;-85
2023/04/15 09:15:57;;;;;;;5.67;4.67;;;12.60;99.90;;;;;;5026284;28;20461;-83
2023/04/15 09:18:31;;;;;;;5.70;4.03;;;12.40;99.90;;;;;;5017141;28;20522;-84
2023/04/15 09:21:05;;;;;;;4.80;3.40;;;12.60;99.90;;;;;;4979663;28;1083725;-85
2023/04/15 09:23:33;;;;;;;17.20;5.47;;;12.70;1.00;;;;;;5019424;28;20628;-84
2023/04/15 09:25:59;;;;;;;25.50;8.60;;;12.60;1.00;;;;;;5018684;28;20487;-83
2023/04/15 09:28:28;;;;;;;11.90;5.70;;;12.40;83.20;;;;;;5018424;28;20471;-84
2023/04/15 09:34:17;;;;;;;17.20;8.17;;;12.50;99.90;;;;;;5017924;28;20412;-85
2023/04/15 09:40:08;;;;;;;9.67;5.90;;;12.30;1.00;;;;;;5017838;28;20434;-84
2023/04/15 09:42:36;;;;;;;7.10;5.80;;;12.30;51.30;;;;;;5016555;28;20561;-83
2023/04/15 09:45:11;;;;;;;12.67;8.13;;;12.30;6.30;;;;;;5016359;28;20509;-83
2023/04/15 09:47:38;;;;;;;7.20;5.33;;;12.50;99.90;;;;;;5016876;28;20454;-83
2023/04/15 09:50:05;;;;;;;13.33;7.57;;;12.50;1.00;;;;;;5015621;28;20479;-83
2023/04/15 09:52:32;;;;;;;13.53;7.43;;;12.30;1.00;;;;;;5015691;28;20474;-83
2023/04/15 09:55:00;;;;;;;14.23;8.90;;;12.00;95.70;;;;;;5016770;28;20524;-84
2023/04/15 09:57:36;;;;;;;9.53;6.30;;;12.10;99.90;;;;;;5016716;28;20514;-84
2023/04/15 10:00:04;;;;;;;9.30;7.07;;;12.60;1.00;;;;;;5017008;28;20482;-83
2023/04/15 10:02:32;;;;;;;20.03;8.60;;;12.50;99.90;;;;;;5016806;28;20454;-83
2023/04/15 10:05:00;;;;;;;12.70;6.80;;;12.20;1.00;;;;;;5017975;28;20461;-83
2023/04/15 10:07:27;;;;;;;7.83;6.60;;;11.90;1.00;;;;;;4997071;28;20459;-82
2023/04/15 10:09:55;;;;;;;15.60;8.03;;;11.90;99.90;;;;;;5000162;28;20562;-83
2023/04/15 10:12:22;;;;;;;14.87;9.27;;;11.80;1.00;;;;;;5017409;28;20500;-83
2023/04/15 10:14:53;;;;;;;8.87;5.90;;;11.80;1.00;;;;;;5019167;28;20449;-82
2023/04/15 10:17:22;;;;;;;10.50;6.07;;;11.90;99.90;;;;;;5017853;28;20502;-83
2023/04/15 10:22:26;;;;;;;6.20;5.30;;;12.50;99.90;;;;;;5040339;28;20467;-80
2023/04/15 10:24:53;;;;;;;5.93;4.90;;;12.90;99.90;;;;;;5019768;28;20827;-77
2023/04/15 10:27:21;;;;;;;6.73;5.10;;;13.10;99.90;;;;;;5050175;28;20552;-78
2023/04/15 10:29:49;;;;;;;7.83;5.17;;;13.00;99.90;;;;;;5057319;28;20457;-79
2023/04/15 10:32:18;;;;;;;8.83;4.40;;;12.90;99.90;;;;;;5034149;28;20467;-80
2023/04/15 10:34:47;;;;;;;7.20;5.10;;;13.20;99.90;;;;;;5023582;28;20835;-79
2023/04/15 10:37:20;;;;;;;7.13;4.63;;;13.00;1.00;;;;;;5051445;28;20962;-79
2023/04/15 10:39:48;;;;;;;9.40;5.70;;;12.70;99.90;;;;;;5062237;28;20967;-80
2023/04/15 10:42:15;;;;;;;9.27;5.70;;;12.90;99.90;;;;;;5047062;28;20922;-79
2023/04/15 10:44:44;;;;;;;11.43;5.63;;;12.60;99.90;;;;;;5040731;28;20647;-78
2023/04/15 10:47:12;;;;;;;6.80;5.07;;;12.30;99.90;;;;;;5043983;28;20511;-79
2023/04/15 10:49:47;;;;;;;8.00;5.60;;;12.20;99.90;;;;;;5029685;28;20458;-80
2023/04/15 10:52:16;;;;;;;7.80;4.93;;;12.10;1.00;;;;;;5027826;28;20458;-79
2023/04/15 10:54:44;;;;;;;9.63;6.37;;;12.20;79.40;;;;;;5049013;28;20455;-78
2023/04/15 10:57:21;;;;;;;10.40;5.90;;;12.20;99.90;;;;;;5059764;28;20458;-81
2023/04/15 11:00:05;;;;;;;12.03;6.80;;;11.90;1.00;;;;;;5041028;28;20450;-80
2023/04/15 11:02:46;;;;;;;10.17;5.60;;;11.70;99.90;;;;;;5053707;28;20444;-79
2023/04/15 11:05:15;;;;;;;8.93;5.80;;;11.70;27.20;;;;;;5045230;28;20449;-79
2023/04/15 11:07:48;;;;;;;12.00;7.27;;;11.50;99.90;;;;;;5040065;28;20545;-79
2023/04/15 11:10:54;;;;;;;7.60;5.90;;;11.20;25.60;;;;;;5047602;28;20901;-79
2023/04/15 11:13:26;;;;;;;186.80;46.60;;;11.10;1.00;;;;;;5058553;28;20447;-79
2023/04/15 11:15:57;;;;;;;8.67;6.90;;;11.10;99.90;;;;;;5060074;28;20468;-78
2023/04/15 11:18:26;;;;;;;8.03;5.40;;;11.00;99.90;;;;;;5044354;28;20479;-79
2023/04/15 11:20:56;;;;;;;7.50;6.20;;;10.70;51.70;;;;;;5033898;28;21011;-77
2023/04/15 11:23:29;;;;;;;7.73;6.97;;;10.60;99.90;;;;;;5055434;28;20456;-82
2023/04/15 11:25:58;;;;;;;8.13;5.77;;;10.60;99.90;;;;;;5064403;28;21056;-82
2023/04/15 11:28:27;;;;;;;8.23;6.87;;;10.60;99.90;;;;;;5045425;28;20492;-78
2023/04/15 11:30:55;;;;;;;6.50;4.80;;;10.70;99.80;;;;;;5034640;28;20483;-78
2023/04/15 11:33:23;;;;;;;6.90;5.50;;;10.80;1.00;;;;;;5050791;28;20456;-78
2023/04/15 11:35:50;;;;;;;7.53;5.63;;;10.90;25.90;;;;;;5043387;28;20452;-78
2023/04/15 11:38:17;;;;;;;8.03;5.60;;;11.00;1.00;;;;;;5034838;28;20460;-77
2023/04/15 11:40:44;;;;;;;6.70;4.70;;;11.10;1.00;;;;;;5045410;28;20684;-80
2023/04/15 11:43:12;;;;;;;7.53;4.80;;;11.20;99.90;;;;;;5063186;28;20461;-81
2023/04/15 11:45:50;;;;;;;6.57;5.00;;;11.20;1.00;;;;;;5049638;28;20452;-81
2023/04/15 11:48:17;;;;;;;6.57;4.60;;;11.10;97.40;;;;;;5055813;28;20487;-83
2023/04/15 11:50:44;;;;;;;6.33;4.83;;;11.20;99.90;;;;;;5052738;28;20487;-84
2023/04/15 11:53:13;;;;;;;7.37;5.03;;;11.30;50.00;;;;;;5060399;28;20457;-81
2023/04/15 11:55:45;;;;;;;10.40;5.07;;;11.20;99.90;;;;;;5062858;28;20467;-83
2023/04/15 11:58:14;;;;;;;6.47;4.63;;;11.20;1.00;;;;;;5041214;28;20502;-83
2023/04/15 12:00:46;;;;;;;6.80;5.27;;;11.00;99.90;;;;;;5044368;28;20480;-82
2023/04/15 12:03:18;;;;;;;7.87;6.20;;;11.00;99.90;;;;;;5055335;28;20458;-81
2023/04/15 12:06:15;;;;;;;5.87;5.10;;;11.00;99.90;;;;;;5052913;28;20445;-82
2023/04/15 12:09:09;;;;;;;7.20;4.80;;;11.10;51.10;;;;;;5046460;28;20949;-79
2023/04/15 12:11:45;;;;;;;5.53;4.40;;;11.10;99.90;;;;;;5034147;28;21004;-79
2023/04/15 12:14:25;;;;;;;6.50;4.57;;;11.20;99.90;;;;;;5049489;28;21114;-78
2023/04/15 12:16:55;;;;;;;7.30;4.90;;;11.20;99.90;;;;;;5055909;28;20445;-80
2023/04/15 12:19:27;;;;;;;6.77;4.60;;;11.10;90.60;;;;;;5049859;28;20444;-78
2023/04/15 12:21:58;;;;;;;5.57;5.03;;;11.00;47.00;;;;;;5035133;28;20489;-78
2023/04/15 12:24:25;;;;;;;6.93;5.13;;;10.90;99.90;;;;;;5040098;28;20885;-77
2023/04/15 12:26:55;;;;;;;6.97;5.23;;;10.90;99.90;;;;;;5030601;28;20520;-78
2023/04/15 12:29:26;;;;;;;6.67;3.77;;;10.90;99.90;;;;;;5032209;28;20540;-79
2023/04/15 12:31:56;;;;;;;6.97;5.27;;;11.00;99.90;;;;;;5019903;28;20855;-83
2023/04/15 12:34:28;;;;;;;8.57;5.27;;;10.90;1.00;;;;;;5029941;28;20457;-83
2023/04/15 12:36:56;;;;;;;6.20;5.30;;;10.90;99.90;;;;;;5037197;28;20451;-81
2023/04/15 12:39:24;;;;;;;5.80;4.53;;;10.90;1.00;;;;;;5026314;28;21034;-80
2023/04/15 12:41:51;;;;;;;5.73;4.83;;;11.00;1.00;;;;;;5031572;28;20468;-80
2023/04/15 12:44:18;;;;;;;8.93;4.93;;;11.10;1.00;;;;;;5036229;28;20578;-82
2023/04/15 12:46:45;;;;;;;6.37;4.80;;;11.20;99.90;;;;;;5030204;28;20484;-79
2023/04/15 12:49:14;;;;;;;4.87;4.27;;;11.30;1.00;;;;;;5033111;28;20454;-79
2023/04/15 12:51:41;;;;;;;6.27;4.67;;;11.30;99.90;;;;;;5032976;28;20484;-77
2023/04/15 12:54:08;;;;;;;5.20;4.00;;;11.40;1.00;;;;;;5036656;28;20454;-78
2023/04/15 12:56:35;;;;;;;6.53;3.60;;;11.50;1.00;;;;;;5033670;28;20453;-77
2023/04/15 12:59:02;;;;;;;4.10;3.50;;;11.40;1.00;;;;;;5047607;28;20470;-77
2023/04/15 13:01:28;;;;;;;6.37;5.10;;;11.30;99.90;;;;;;5032638;28;20479;-78
2023/04/15 13:03:56;;;;;;;5.67;3.93;;;11.40;9.20;;;;;;5032373;28;20462;-77